Time;durP1;ratioP1;P1;durP2;ratioP2;P2;SDS_P1;SDS_P2;PMS_P1;PMS_P2;Temp;Humidity;BMP_temperature;BMP_pressure;BME280_temperature;BME280_humidity;BME280_pressure;Samples;Min_cycle;Max_cycle;Signal;HPM_P1;HPM_P2
2022/04/18 00:00:56;;;;;;;;;;;4.20;93.50;;;;;;5074421;28;20041;-67
2022/04/18 00:03:21;;;;;;;7.53;3.15;;;4.20;93.90;;;;;;5071551;28;19931;-67
2022/04/18 00:05:47;;;;;;;;;;;4.10;93.80;;;;;;5078222;28;20037;-66
2022/04/18 00:08:12;;;;;;;7.78;3.30;;;4.10;94.80;;;;;;5064538;28;19917;-67
2022/04/18 00:10:38;;;;;;;7.25;3.15;;;4.00;95.00;;;;;;5061530;28;20065;-67
2022/04/18 00:13:04;;;;;;;7.13;2.97;;;4.00;95.00;;;;;;5075042;28;20139;-67
2022/04/18 00:15:29;;;;;;;4.93;2.90;;;4.00;95.50;;;;;;5061566;28;20044;-66
2022/04/18 00:17:55;;;;;;;;;;;4.00;96.10;;;;;;5069802;28;20037;-66
2022/04/18 00:20:20;;;;;;;9.30;3.22;;;4.00;95.90;;;;;;5050437;28;19917;-66
2022/04/18 00:22:46;;;;;;;7.05;2.83;;;4.00;96.00;;;;;;5063944;28;20102;-66
2022/04/18 00:25:11;;;;;;;;;;;4.00;96.10;;;;;;5048652;28;20401;-65
2022/04/18 00:27:38;;;;;;;6.10;2.90;;;3.90;96.40;;;;;;5064604;28;20427;-65
2022/04/18 00:30:06;;;;;;;5.30;2.83;;;4.00;96.30;;;;;;5050547;28;20447;-66
2022/04/18 00:32:34;;;;;;;7.88;2.95;;;3.90;96.40;;;;;;5041492;28;20037;-65
2022/04/18 00:35:03;;;;;;;7.45;2.83;;;3.80;96.80;;;;;;5049348;28;20544;-66
2022/04/18 00:37:29;;;;;;;6.47;2.33;;;3.80;96.70;;;;;;5049373;28;20051;-66
2022/04/18 00:40:03;;;;;;;4.88;2.70;;;3.80;96.60;;;;;;5049480;28;20048;-65
2022/04/18 00:42:34;;;;;;;4.88;2.67;;;3.80;97.20;;;;;;5049854;28;20036;-66
2022/04/18 00:45:00;;;;;;;6.00;3.45;;;3.80;97.10;;;;;;5048541;28;20645;-66
2022/04/18 00:47:36;;;;;;;4.97;2.60;;;3.80;97.70;;;;;;5047111;28;20119;-65
2022/04/18 00:50:03;;;;;;;7.90;2.88;;;3.70;97.30;;;;;;5045237;28;20036;-68
2022/04/18 00:52:33;;;;;;;5.90;2.95;;;3.80;97.90;;;;;;5048452;28;20455;-66
2022/04/18 00:55:02;;;;;;;6.05;2.83;;;3.70;98.10;;;;;;5048542;28;20743;-65
2022/04/18 00:57:28;;;;;;;4.60;2.53;;;3.70;98.30;;;;;;5048118;28;20150;-65
2022/04/18 00:59:57;;;;;;;8.13;3.47;;;3.70;98.50;;;;;;5047101;28;20074;-66
2022/04/18 01:02:27;;;;;;;6.20;2.85;;;3.80;97.80;;;;;;5042767;28;20037;-65
2022/04/18 01:04:55;;;;;;;5.63;3.17;;;3.70;99.60;;;;;;5049084;28;20048;-66
2022/04/18 01:07:25;;;;;;;8.57;2.50;;;3.60;99.60;;;;;;5043057;28;20045;-66
2022/04/18 01:09:56;;;;;;;5.38;2.78;;;3.60;99.90;;;;;;5048155;28;20067;-66
2022/04/18 01:12:24;;;;;;;4.10;2.53;;;3.70;98.90;;;;;;5048101;28;20076;-66
2022/04/18 01:15:01;;;;;;;6.35;2.92;;;3.70;99.90;;;;;;5046733;28;20041;-66
2022/04/18 01:17:31;;;;;;;6.75;2.70;;;3.70;99.90;;;;;;5048065;28;20045;-66
2022/04/18 01:20:03;;;;;;;3.78;2.30;;;3.80;99.20;;;;;;5047687;28;20040;-66
2022/04/18 01:22:33;;;;;;;6.47;2.70;;;3.90;98.80;;;;;;5046664;28;20044;-66
2022/04/18 01:30:44;;;;;;;5.90;2.00;;;4.00;98.50;;;;;;5048743;28;20572;-65
2022/04/18 01:33:13;;;;;;;4.55;2.30;;;4.10;98.20;;;;;;5050543;28;20120;-66
2022/04/18 01:35:38;;;;;;;8.23;2.40;;;4.10;99.00;;;;;;5049121;28;20087;-65
2022/04/18 01:38:13;;;;;;;3.53;2.42;;;4.00;99.10;;;;;;5047518;28;20037;-65
2022/04/18 01:40:39;;;;;;;4.72;2.78;;;4.00;99.70;;;;;;5047342;28;20029;-65
2022/04/18 01:43:06;;;;;;;6.43;2.85;;;4.00;99.80;;;;;;5047237;28;20248;-64
2022/04/18 01:45:35;;;;;;;4.80;2.72;;;3.90;99.90;;;;;;5047395;28;20076;-65
2022/04/18 01:48:04;;;;;;;6.65;2.58;;;3.80;99.90;;;;;;5048507;28;20637;-65
2022/04/18 01:50:32;;;;;;;4.78;2.60;;;3.80;99.90;;;;;;5047706;28;20097;-65
2022/04/18 01:53:07;;;;;;;6.57;2.78;;;3.70;99.90;;;;;;5047724;28;20481;-65
2022/04/18 01:55:47;;;;;;;3.83;2.47;;;3.70;99.90;;;;;;5046905;28;20098;-65
2022/04/18 01:58:18;;;;;;;5.18;2.90;;;3.70;99.90;;;;;;5046401;28;20032;-65
2022/04/18 02:00:47;;;;;;;5.90;2.67;;;3.70;99.90;;;;;;5045954;28;20037;-65
2022/04/18 02:03:12;;;;;;;4.95;2.80;;;3.70;99.90;;;;;;5047109;28;20101;-65
2022/04/18 02:05:44;;;;;;;5.28;2.55;;;3.70;99.90;;;;;;5047563;28;20434;-65
2022/04/18 02:08:10;;;;;;;5.72;2.67;;;3.70;99.90;;;;;;5047501;28;20447;-66
2022/04/18 02:10:36;;;;;;;4.20;2.50;;;3.70;99.90;;;;;;5044997;28;20408;-64
2022/04/18 02:13:02;;;;;;;5.50;2.17;;;3.70;99.90;;;;;;5045639;28;20033;-64
2022/04/18 02:15:28;;;;;;;3.97;2.15;;;3.70;99.90;;;;;;5045623;28;20373;-65
2022/04/18 02:17:53;;;;;;;4.38;1.90;;;3.70;99.90;;;;;;5045305;28;20041;-64
2022/04/18 02:20:19;;;;;;;5.68;2.97;;;3.70;99.90;;;;;;5045524;28;20041;-65
2022/04/18 02:22:45;;;;;;;4.45;2.35;;;3.50;99.90;;;;;;5045525;28;20513;-64
2022/04/18 02:25:10;;;;;;;6.87;2.37;;;3.50;99.90;;;;;;5044948;28;20032;-65
2022/04/18 02:27:36;;;;;;;3.55;2.15;;;3.50;99.90;;;;;;5044823;28;20241;-65
2022/04/18 02:30:04;;;;;;;5.85;2.45;;;3.50;99.90;;;;;;5043711;28;20045;-65
2022/04/18 02:32:47;;;;;;;4.07;2.22;;;3.40;99.90;;;;;;5044457;28;20052;-64
2022/04/18 02:35:21;;;;;;;4.60;2.15;;;3.40;99.90;;;;;;5045276;28;20677;-65
2022/04/18 02:37:47;;;;;;;4.07;2.20;;;3.40;99.90;;;;;;5045280;28;20052;-65
2022/04/18 02:40:13;;;;;;;4.70;2.00;;;3.40;99.90;;;;;;5044310;28;20499;-65
2022/04/18 02:42:40;;;;;;;4.15;2.60;;;3.50;99.90;;;;;;5044657;28;20114;-64
2022/04/18 02:45:06;;;;;;;6.78;2.63;;;3.50;99.90;;;;;;5042825;28;20094;-65
2022/04/18 02:47:32;;;;;;;10.93;2.80;;;3.50;99.90;;;;;;5044924;28;20052;-65
2022/04/18 02:49:57;;;;;;;5.45;2.60;;;3.50;99.90;;;;;;5045475;28;20130;-65
2022/04/18 02:52:23;;;;;;;4.93;2.60;;;3.50;99.90;;;;;;5045136;28;20043;-65
2022/04/18 02:54:48;;;;;;;4.35;2.58;;;3.50;99.90;;;;;;5043163;28;20041;-65
2022/04/18 02:57:14;;;;;;;4.93;2.20;;;3.50;99.90;;;;;;5043744;28;20126;-65
2022/04/18 02:59:40;;;;;;;5.10;2.60;;;3.50;99.90;;;;;;5044714;28;20033;-65
2022/04/18 03:02:06;;;;;;;7.47;2.58;;;3.50;99.90;;;;;;5042813;28;20037;-65
2022/04/18 03:04:32;;;;;;;5.40;3.08;;;3.50;99.90;;;;;;5043104;28;20467;-65
2022/04/18 03:06:57;;;;;;;6.70;2.80;;;3.40;99.90;;;;;;5044473;28;20110;-64
2022/04/18 03:09:23;;;;;;;;;;;3.50;99.90;;;;;;5043480;28;20436;-64
2022/04/18 03:11:48;;;;;;;5.25;2.28;;;3.40;99.90;;;;;;5044785;28;19916;-64
2022/04/18 03:14:14;;;;;;;;;;;3.40;99.90;;;;;;5044005;28;20685;-64
2022/04/18 03:16:39;;;;;;;5.25;2.45;;;3.40;99.90;;;;;;5045911;28;19959;-64
2022/04/18 03:19:05;;;;;;;3.83;2.05;;;3.40;99.90;;;;;;5045772;28;20082;-64
2022/04/18 03:21:30;;;;;;;4.50;2.50;;;3.40;99.90;;;;;;5044332;28;20037;-64
2022/04/18 03:23:56;;;;;;;7.40;2.58;;;3.30;99.90;;;;;;5043672;28;20033;-64
2022/04/18 03:26:22;;;;;;;7.90;2.53;;;3.30;99.90;;;;;;5043319;28;20057;-64
2022/04/18 03:28:47;;;;;;;6.53;2.53;;;3.30;99.90;;;;;;5044622;28;20037;-64
2022/04/18 03:31:13;;;;;;;6.28;2.92;;;3.20;99.90;;;;;;5043711;28;20682;-64
2022/04/18 03:33:39;;;;;;;3.53;2.38;;;3.10;99.90;;;;;;5044552;28;20504;-64
2022/04/18 03:41:33;;;;;;;7.38;2.83;;;3.20;99.90;;;;;;5031223;28;20041;-64
2022/04/18 03:43:58;;;;;;;4.35;2.58;;;3.20;99.90;;;;;;5044836;28;20123;-64
2022/04/18 03:46:24;;;;;;;3.90;1.98;;;3.20;99.90;;;;;;5044154;28;20041;-64
2022/04/18 03:48:49;;;;;;;;;;;3.20;99.90;;;;;;5045007;28;20389;-65
2022/04/18 03:51:15;;;;;;;5.15;2.45;;;3.20;99.90;;;;;;5045348;28;19970;-64
2022/04/18 03:53:41;;;;;;;4.53;2.53;;;3.20;99.90;;;;;;5046727;28;20060;-65
2022/04/18 03:56:06;;;;;;;7.70;2.47;;;3.20;99.90;;;;;;5048257;28;20124;-65
2022/04/18 03:58:32;;;;;;;4.35;2.40;;;3.30;99.90;;;;;;5048139;28;20116;-64
2022/04/18 04:00:57;;;;;;;6.18;2.88;;;3.30;99.90;;;;;;5047132;28;20036;-64
2022/04/18 04:03:26;;;;;;;4.80;2.30;;;3.30;99.90;;;;;;5047384;28;20079;-66
2022/04/18 04:05:53;;;;;;;6.35;2.35;;;3.30;99.90;;;;;;5047985;28;20097;-65
2022/04/18 04:08:22;;;;;;;3.67;2.50;;;3.30;99.90;;;;;;5047575;28;20052;-66
2022/04/18 04:10:50;;;;;;;5.35;1.98;;;3.30;99.90;;;;;;5047948;28;20048;-65
2022/04/18 04:13:16;;;;;;;4.70;2.47;;;3.30;99.90;;;;;;5048276;28;20041;-66
2022/04/18 04:15:42;;;;;;;4.90;2.42;;;3.30;99.90;;;;;;5048087;28;20080;-65
2022/04/18 04:18:08;;;;;;;5.05;2.33;;;3.40;99.90;;;;;;5048129;28;20077;-65
2022/04/18 04:20:34;;;;;;;6.22;2.28;;;3.40;99.90;;;;;;5047958;28;20037;-65
2022/04/18 04:23:00;;;;;;;5.90;2.17;;;3.40;99.90;;;;;;5047201;28;20041;-65
2022/04/18 04:25:25;;;;;;;3.65;2.20;;;3.40;99.90;;;;;;5047912;28;20041;-66
2022/04/18 04:27:51;;;;;;;5.20;2.25;;;3.40;99.90;;;;;;5045849;28;20389;-65
2022/04/18 04:30:16;;;;;;;6.90;2.17;;;3.40;99.90;;;;;;5046122;28;20037;-65
2022/04/18 04:32:42;;;;;;;5.53;2.60;;;3.40;99.90;;;;;;5047799;28;20068;-66
2022/04/18 04:35:08;;;;;;;4.50;2.08;;;3.40;99.90;;;;;;5047246;28;20048;-66
2022/04/18 04:37:33;;;;;;;3.45;2.10;;;3.50;99.90;;;;;;5046527;28;20120;-66
2022/04/18 04:39:59;;;;;;;3.80;2.10;;;3.50;99.90;;;;;;5047284;28;20489;-66
2022/04/18 04:42:24;;;;;;;5.35;2.50;;;3.60;99.90;;;;;;5046733;28;20057;-65
2022/04/18 04:44:50;;;;;;;6.68;2.30;;;3.60;99.90;;;;;;5041161;28;20052;-66
2022/04/18 04:47:15;;;;;;;4.53;2.22;;;3.60;99.90;;;;;;5046416;28;20119;-66
2022/04/18 04:49:41;;;;;;;4.32;1.92;;;3.60;99.90;;;;;;5047498;28;20523;-66
2022/04/18 04:52:07;;;;;;;;;;;4.20;99.90;;;;;;5045079;28;20065;-66
2022/04/18 04:54:33;;;;;;;3.67;2.08;;;5.20;99.90;;;;;;5047610;28;19966;-66
2022/04/18 04:56:58;;;;;;;5.40;2.30;;;6.20;99.70;;;;;;5047502;28;20075;-66
2022/04/18 04:59:24;;;;;;;;;;;7.00;97.30;;;;;;5046983;28;20724;-67
2022/04/18 05:01:49;;;;;;;2.55;1.50;;;7.90;95.80;;;;;;5045977;28;19923;-66
2022/04/18 05:04:15;;;;;;;;;;;8.90;93.90;;;;;;5046742;28;20032;-67
2022/04/18 05:06:41;;;;;;;3.97;1.65;;;10.00;92.10;;;;;;5044531;28;19927;-67
2022/04/18 05:09:09;;;;;;;;;;;10.90;88.70;;;;;;5047326;28;20481;-66
2022/04/18 05:11:35;;;;;;;3.03;1.92;;;11.60;84.50;;;;;;5043417;28;19959;-66
2022/04/18 05:14:00;;;;;;;;;;;12.00;82.90;;;;;;5044631;28;20525;-66
2022/04/18 05:16:26;;;;;;;4.40;1.80;;;11.20;81.80;;;;;;5044953;28;19923;-65
2022/04/18 05:18:51;;;;;;;;;;;10.00;87.50;;;;;;5047734;28;20516;-66
2022/04/18 05:21:17;;;;;;;3.30;1.50;;;10.00;90.00;;;;;;5044536;28;19999;-65
2022/04/18 05:23:43;;;;;;;;;;;11.30;87.70;;;;;;5027769;28;20462;-66
2022/04/18 05:26:09;;;;;;;3.33;1.45;;;12.70;79.50;;;;;;5045242;28;19925;-66
2022/04/18 05:28:35;;;;;;;;;;;13.70;78.00;;;;;;5041119;28;20041;-66
2022/04/18 05:31:01;;;;;;;2.33;1.50;;;14.60;70.70;;;;;;5045746;28;19938;-66
2022/04/18 05:33:26;;;;;;;;;;;15.40;68.50;;;;;;5045949;28;20684;-66
2022/04/18 05:35:52;;;;;;;3.45;1.48;;;16.20;63.70;;;;;;5046674;28;19952;-66
2022/04/18 05:38:18;;;;;;;;;;;16.60;58.10;;;;;;5041966;28;20091;-67
2022/04/18 05:40:44;;;;;;;3.50;1.75;;;16.80;58.30;;;;;;5046527;28;19916;-65
2022/04/18 05:43:10;;;;;;;2.47;1.58;;;17.10;57.60;;;;;;5046416;28;20095;-64
2022/04/18 05:45:39;;;;;;;2.50;1.50;;;16.90;56.90;;;;;;5045667;28;20045;-65
2022/04/18 05:48:05;;;;;;;4.32;1.98;;;15.70;59.40;;;;;;5043561;28;20095;-66
2022/04/18 05:50:31;;;;;;;3.72;1.67;;;14.60;61.90;;;;;;5041832;28;20053;-64
2022/04/18 05:52:56;;;;;;;;;;;14.50;62.40;;;;;;5041458;28;20037;-68
2022/04/18 05:55:23;;;;;;;3.25;1.70;;;14.90;58.60;;;;;;5044075;28;19928;-67
2022/04/18 05:57:50;;;;;;;2.35;1.63;;;14.20;59.60;;;;;;5038821;28;20033;-65
2022/04/18 06:00:16;;;;;;;5.78;1.83;;;13.70;66.20;;;;;;5040878;28;20060;-68
2022/04/18 06:02:42;;;;;;;2.55;1.30;;;14.20;63.00;;;;;;5046297;28;20136;-64
2022/04/18 06:05:08;;;;;;;;;;;15.20;62.50;;;;;;5044210;28;20123;-67
2022/04/18 06:07:34;;;;;;;3.85;1.58;;;15.30;56.00;;;;;;5045918;28;19921;-66
2022/04/18 06:10:03;;;;;;;5.85;1.75;;;14.10;58.30;;;;;;5042536;28;20091;-66
2022/04/18 06:12:29;;;;;;;1.98;1.38;;;12.80;62.80;;;;;;5041280;28;20048;-65
2022/04/18 06:14:54;;;;;;;;;;;12.50;62.40;;;;;;5044406;28;20041;-67
2022/04/18 06:17:20;;;;;;;2.90;1.50;;;14.10;59.60;;;;;;5045558;28;19920;-65
2022/04/18 06:19:45;;;;;;;3.75;1.60;;;15.80;56.60;;;;;;5045774;28;20045;-67
2022/04/18 06:22:11;;;;;;;2.45;1.40;;;17.40;50.30;;;;;;5045251;28;20040;-66
2022/04/18 06:24:37;;;;;;;4.65;1.80;;;18.20;51.00;;;;;;5043323;28;20044;-65
2022/04/18 06:27:02;;;;;;;2.60;1.30;;;18.30;51.00;;;;;;5036008;28;20551;-65
2022/04/18 06:29:28;;;;;;;4.53;1.80;;;18.30;50.70;;;;;;5040519;28;20048;-67
2022/04/18 06:31:54;;;;;;;3.28;1.83;;;17.40;47.00;;;;;;5038084;28;20037;-70
2022/04/18 06:34:20;;;;;;;4.70;1.50;;;16.40;50.70;;;;;;5044074;28;20060;-68
2022/04/18 06:36:46;;;;;;;3.25;1.65;;;15.50;50.20;;;;;;5036396;28;20429;-68
2022/04/18 06:39:12;;;;;;;3.20;2.00;;;16.00;54.70;;;;;;5043167;28;20047;-69
2022/04/18 06:41:37;;;;;;;2.28;1.38;;;16.80;51.60;;;;;;5046818;28;20508;-67
2022/04/18 06:44:04;;;;;;;3.92;1.70;;;17.90;49.20;;;;;;5042214;28;20037;-68
2022/04/18 06:46:29;;;;;;;2.58;1.58;;;18.50;47.50;;;;;;5047416;28;20049;-68
2022/04/18 06:48:55;;;;;;;3.25;1.38;;;18.40;44.90;;;;;;5045304;28;20604;-68
2022/04/18 06:51:21;;;;;;;6.35;1.50;;;18.70;47.20;;;;;;5040961;28;20596;-69
2022/04/18 06:53:46;;;;;;;3.58;1.92;;;19.00;46.00;;;;;;5045650;28;20129;-69
2022/04/18 06:58:56;;;;;;;2.30;1.70;;;17.70;45.10;;;;;;5045582;28;20389;-68
2022/04/18 07:01:22;;;;;;;5.15;2.28;;;16.70;48.10;;;;;;5045290;28;20052;-69
2022/04/18 07:03:47;;;;;;;6.93;2.13;;;16.30;47.70;;;;;;5046113;28;20091;-67
2022/04/18 07:06:13;;;;;;;3.03;1.67;;;16.20;49.20;;;;;;5043353;28;20128;-67
2022/04/18 07:08:39;;;;;;;3.53;2.28;;;16.00;51.60;;;;;;5042011;28;20122;-67
2022/04/18 07:11:04;;;;;;;;;;;15.50;48.80;;;;;;5045100;28;20048;-68
2022/04/18 07:13:30;;;;;;;5.22;1.95;;;14.70;49.60;;;;;;5046592;28;19921;-68
2022/04/18 07:15:56;;;;;;;;;;;14.70;54.70;;;;;;5045073;28;20404;-68
2022/04/18 07:18:21;;;;;;;3.00;1.80;;;15.30;52.60;;;;;;5043198;28;20322;-67
2022/04/18 07:20:47;;;;;;;4.47;1.92;;;15.70;51.90;;;;;;5042007;28;20112;-67
2022/04/18 07:23:13;;;;;;;4.22;1.83;;;15.70;50.70;;;;;;5045569;28;20064;-67
2022/04/18 07:25:39;;;;;;;;;;;15.30;50.60;;;;;;5045774;28;20400;-68
2022/04/18 07:28:05;;;;;;;3.50;1.85;;;15.20;50.70;;;;;;5041374;28;19924;-68
2022/04/18 07:30:31;;;;;;;;;;;15.20;49.50;;;;;;5048809;28;20059;-68
2022/04/18 07:32:57;;;;;;;3.95;1.90;;;15.00;49.80;;;;;;5049186;28;19912;-69
2022/04/18 07:35:23;;;;;;;3.42;1.80;;;15.50;51.10;;;;;;5050131;28;20049;-69
2022/04/18 07:40:33;;;;;;;2.40;1.45;;;17.10;47.50;;;;;;5049457;28;20489;-69
2022/04/18 07:42:58;;;;;;;;;;;16.60;48.10;;;;;;5049748;28;20048;-69
2022/04/18 07:45:24;;;;;;;3.38;1.77;;;16.40;50.20;;;;;;5048637;28;20350;-67
2022/04/18 07:47:53;;;;;;;3.17;1.80;;;16.90;49.70;;;;;;5049766;28;20551;-68
2022/04/18 07:50:19;;;;;;;3.17;1.83;;;17.10;47.10;;;;;;5049690;28;20044;-69
2022/04/18 07:52:45;;;;;;;3.05;1.55;;;17.20;48.40;;;;;;5049378;28;20580;-67
2022/04/18 07:55:11;;;;;;;6.15;1.67;;;17.10;46.40;;;;;;5049641;28;20055;-69
2022/04/18 07:57:38;;;;;;;2.85;1.50;;;17.20;46.80;;;;;;5042694;28;20672;-68
2022/04/18 08:00:08;;;;;;;3.20;1.83;;;17.70;46.80;;;;;;5048986;28;20463;-69
2022/04/18 08:02:34;;;;;;;3.53;2.13;;;19.00;47.10;;;;;;5048351;28;20044;-69
2022/04/18 08:05:00;;;;;;;3.65;2.10;;;20.50;43.70;;;;;;5049222;28;20048;-69
2022/04/18 08:07:25;;;;;;;2.50;1.60;;;21.30;38.90;;;;;;5048657;28;20049;-69
2022/04/18 08:09:51;;;;;;;2.85;1.55;;;21.40;36.40;;;;;;5049273;28;20045;-69
2022/04/18 08:12:17;;;;;;;1.90;1.50;;;22.10;38.30;;;;;;5047279;28;20102;-68
2022/04/18 08:14:43;;;;;;;3.53;1.80;;;22.50;38.70;;;;;;5047582;28;20515;-70
2022/04/18 08:17:08;;;;;;;2.40;1.60;;;23.80;36.60;;;;;;5049443;28;20061;-69
2022/04/18 08:19:35;;;;;;;4.22;1.50;;;23.70;34.70;;;;;;5049056;28;20134;-69
2022/04/18 08:22:02;;;;;;;2.22;1.50;;;23.30;33.80;;;;;;5049588;28;20040;-68
2022/04/18 08:24:28;;;;;;;2.05;1.60;;;23.70;34.30;;;;;;5047872;28;20044;-68
2022/04/18 08:26:54;;;;;;;2.42;1.45;;;23.50;32.80;;;;;;5048493;28;20485;-68
2022/04/18 08:29:22;;;;;;;3.33;2.00;;;23.60;34.40;;;;;;5049710;28;20112;-69
2022/04/18 08:31:48;;;;;;;2.17;1.73;;;24.20;33.50;;;;;;5048332;28;20512;-68
2022/04/18 08:34:14;;;;;;;2.97;1.50;;;23.80;31.70;;;;;;5049131;28;20040;-69
2022/04/18 08:36:39;;;;;;;3.47;1.90;;;23.60;32.80;;;;;;5050352;28;20041;-69
2022/04/18 08:39:05;;;;;;;3.25;1.88;;;22.30;33.60;;;;;;5047660;28;20041;-68
2022/04/18 08:41:38;;;;;;;2.88;1.55;;;21.60;35.50;;;;;;5046229;28;20030;-67
2022/04/18 08:44:04;;;;;;;4.30;2.03;;;20.90;38.00;;;;;;5045623;28;20124;-68
2022/04/18 08:46:30;;;;;;;4.38;2.30;;;19.20;38.60;;;;;;5048648;28;20160;-69
2022/04/18 08:54:29;;;;;;;6.32;1.85;;;16.60;46.00;;;;;;5049889;28;20041;-68
2022/04/18 08:56:56;;;;;;;3.95;1.75;;;16.40;46.20;;;;;;5047801;28;20045;-68
2022/04/18 08:59:22;;;;;;;4.28;2.20;;;16.30;46.80;;;;;;5049154;28;20045;-68
2022/04/18 09:01:50;;;;;;;;;;;16.20;46.40;;;;;;5046640;28;20139;-73
2022/04/18 09:04:18;;;;;;;4.07;1.70;;;15.90;48.70;;;;;;5046334;28;19924;-69
2022/04/18 09:06:45;;;;;;;4.63;2.05;;;15.90;49.60;;;;;;5046744;28;20120;-68
2022/04/18 09:09:11;;;;;;;4.63;1.80;;;15.90;52.10;;;;;;5047546;28;20040;-70
2022/04/18 09:11:37;;;;;;;;;;;15.90;49.80;;;;;;5048004;28;20109;-69
2022/04/18 09:14:14;;;;;;;3.13;1.60;;;15.90;48.80;;;;;;5048112;28;19921;-69
2022/04/18 09:16:41;;;;;;;3.72;1.77;;;15.60;48.30;;;;;;5048748;28;20045;-68
2022/04/18 09:19:12;;;;;;;5.05;1.67;;;15.40;47.80;;;;;;5046745;28;20033;-69
2022/04/18 09:21:58;;;;;;;5.30;1.85;;;15.00;48.00;;;;;;5047468;28;20041;-68
2022/04/18 09:24:38;;;;;;;2.87;1.57;;;14.70;49.40;;;;;;5046013;28;20076;-70
2022/04/18 09:27:09;;;;;;;2.95;1.80;;;14.50;48.70;;;;;;5051028;28;20068;-68
2022/04/18 09:29:39;;;;;;;3.00;1.63;;;14.30;48.30;;;;;;5049056;28;20045;-69
2022/04/18 09:32:13;;;;;;;4.00;1.38;;;14.30;48.70;;;;;;5046607;28;20044;-68
2022/04/18 09:34:40;;;;;;;6.50;1.52;;;14.50;48.70;;;;;;5047269;28;20140;-71
2022/04/18 09:37:19;;;;;;;2.45;1.20;;;14.70;49.60;;;;;;5046706;28;20045;-70
2022/04/18 09:39:52;;;;;;;3.22;0.75;;;15.00;47.90;;;;;;5044927;28;20036;-69
2022/04/18 09:42:22;;;;;;;1.00;0.80;;;14.80;43.10;;;;;;5046942;28;20052;-72
2022/04/18 09:44:48;;;;;;;1.88;1.25;;;14.80;45.40;;;;;;5046767;28;20153;-70
2022/04/18 09:47:16;;;;;;;1.92;1.25;;;14.80;45.80;;;;;;5043856;28;20051;-71
2022/04/18 09:49:42;;;;;;;2.65;1.35;;;15.00;47.50;;;;;;5045862;28;20041;-68
2022/04/18 09:52:10;;;;;;;;;;;15.10;47.80;;;;;;5045026;28;20037;-68
2022/04/18 09:54:35;;;;;;;5.30;1.50;;;14.90;48.50;;;;;;5045679;28;20451;-68
2022/04/18 09:57:05;;;;;;;;;;;15.00;49.40;;;;;;5043615;28;20052;-68
2022/04/18 09:59:31;;;;;;;3.58;1.95;;;15.30;50.60;;;;;;5046113;28;20011;-68
2022/04/18 10:01:58;;;;;;;;;;;15.30;50.80;;;;;;5045263;28;20300;-68
2022/04/18 10:04:24;;;;;;;3.28;1.73;;;15.10;46.00;;;;;;5047085;28;19921;-68
2022/04/18 10:06:52;;;;;;;3.25;2.03;;;15.10;49.00;;;;;;5046145;28;20068;-68
2022/04/18 10:09:22;;;;;;;3.45;2.10;;;15.20;49.20;;;;;;5046332;28;20036;-67
2022/04/18 10:11:49;;;;;;;2.85;1.90;;;15.00;47.20;;;;;;5046010;28;20065;-68
2022/04/18 10:14:15;;;;;;;7.18;2.50;;;14.70;49.80;;;;;;5047627;28;20060;-68
2022/04/18 10:16:41;;;;;;;4.53;1.60;;;14.70;53.30;;;;;;5045890;28;20582;-66
2022/04/18 10:19:26;;;;;;;2.53;1.65;;;14.80;52.30;;;;;;5041425;28;20113;-67
2022/04/18 10:22:04;;;;;;;5.57;2.10;;;15.20;52.60;;;;;;5043685;28;20073;-67
2022/04/18 10:24:35;;;;;;;4.20;1.83;;;14.90;50.20;;;;;;5045416;28;20037;-68
2022/04/18 10:27:33;;;;;;;4.18;1.80;;;14.60;49.20;;;;;;5045484;28;20044;-69
2022/04/18 10:30:00;;;;;;;2.63;1.70;;;14.40;47.70;;;;;;5033547;28;20049;-70
2022/04/18 10:32:27;;;;;;;2.65;1.65;;;14.60;48.30;;;;;;5042585;28;20048;-69
2022/04/18 10:35:00;;;;;;;3.42;1.70;;;14.60;47.80;;;;;;5043770;28;20656;-69
2022/04/18 10:37:28;;;;;;;3.22;1.58;;;14.70;47.60;;;;;;5042041;28;20056;-69
2022/04/18 10:39:58;;;;;;;3.45;1.60;;;14.90;48.60;;;;;;5042209;28;20500;-66
2022/04/18 10:42:30;;;;;;;2.72;1.55;;;15.10;47.50;;;;;;5044314;28;20301;-69
2022/04/18 10:45:21;;;;;;;3.05;1.10;;;15.10;45.30;;;;;;5041690;28;20041;-70
2022/04/18 10:48:04;;;;;;;1.88;1.20;;;15.00;47.10;;;;;;5044732;28;20096;-67
2022/04/18 10:50:42;;;;;;;2.60;1.33;;;14.90;43.70;;;;;;5040424;28;20061;-68
2022/04/18 10:53:15;;;;;;;5.78;2.45;;;14.80;45.50;;;;;;5074495;28;20064;-68
2022/04/18 10:55:53;;;;;;;3.65;1.83;;;15.10;47.20;;;;;;5044470;28;21402;-68
2022/04/18 10:58:35;;;;;;;3.28;1.42;;;15.20;47.30;;;;;;5043552;28;20049;-68
2022/04/18 11:01:11;;;;;;;9.57;1.50;;;15.30;43.70;;;;;;5041098;28;20058;-70
2022/04/18 11:04:00;;;;;;;2.63;1.38;;;15.30;47.00;;;;;;5060764;28;20717;-67
2022/04/18 11:06:26;;;;;;;5.63;1.75;;;15.40;48.20;;;;;;5043082;28;20049;-67
2022/04/18 11:08:58;;;;;;;;;;;15.50;47.90;;;;;;5044980;28;20055;-67
2022/04/18 11:11:24;;;;;;;3.88;1.50;;;15.70;47.80;;;;;;5042485;28;19926;-66
2022/04/18 11:13:49;;;;;;;;;;;15.40;44.80;;;;;;5045074;28;20124;-67
2022/04/18 11:16:24;;;;;;;6.18;2.70;;;15.10;46.40;;;;;;5044085;28;20301;-68
2022/04/18 11:19:08;;;;;;;3.58;1.38;;;15.20;48.80;;;;;;5044216;28;20932;-67
2022/04/18 11:22:00;;;;;;;4.38;1.77;;;15.40;48.30;;;;;;5043646;28;20036;-68
2022/04/18 11:24:38;;;;;;;2.20;1.27;;;15.10;48.30;;;;;;5044426;28;20057;-67
2022/04/18 11:27:26;;;;;;;5.50;1.55;;;14.90;49.90;;;;;;5042965;28;20047;-66
2022/04/18 11:29:59;;;;;;;1.92;1.10;;;15.00;46.90;;;;;;5030465;28;20149;-68
2022/04/18 11:32:27;;;;;;;4.28;1.33;;;15.10;47.40;;;;;;5040892;28;20041;-67
2022/04/18 11:34:54;;;;;;;2.95;1.33;;;15.20;46.90;;;;;;5044451;28;20584;-68
2022/04/18 11:37:39;;;;;;;4.22;1.35;;;15.10;45.90;;;;;;5044411;28;20048;-68
2022/04/18 11:40:10;;;;;;;3.45;1.52;;;14.70;46.20;;;;;;5044994;28;20036;-68
2022/04/18 11:42:37;;;;;;;4.55;1.60;;;14.50;50.00;;;;;;5045734;28;20045;-67
2022/04/18 11:45:08;;;;;;;5.53;1.63;;;14.70;50.00;;;;;;5044335;28;20037;-67
2022/04/18 11:47:43;;;;;;;2.22;0.90;;;14.70;45.70;;;;;;5044307;28;20045;-67
2022/04/18 11:50:09;;;;;;;2.10;1.40;;;14.70;46.30;;;;;;5043741;28;20642;-67
2022/04/18 11:52:38;;;;;;;2.40;1.30;;;15.10;49.20;;;;;;5045163;28;20040;-67
2022/04/18 11:55:06;;;;;;;2.70;1.25;;;15.30;47.50;;;;;;5044823;28;20037;-67
2022/04/18 11:57:36;;;;;;;2.38;1.50;;;15.20;45.80;;;;;;5042824;28;20108;-67
2022/04/18 12:06:44;;;;;;;2.00;1.27;;;15.10;45.30;;;;;;5043647;28;20117;-67
2022/04/18 12:08:34;;;;;;;3.00;1.25;;;15.10;44.40;;;;;;5057535;28;20032;-68
2022/04/18 12:11:00;;;;;;;;;;;15.10;48.60;;;;;;5064874;28;20051;-66
2022/04/18 12:13:26;;;;;;;2.05;1.10;;;15.20;46.10;;;;;;5065325;28;20011;-66
2022/04/18 12:15:51;;;;;;;;;;;15.20;45.00;;;;;;5067788;28;20131;-66
2022/04/18 12:18:18;;;;;;;4.85;2.45;;;15.10;44.00;;;;;;5064095;28;19920;-68
2022/04/18 12:20:49;;;;;;;2.00;1.30;;;15.40;47.60;;;;;;5066393;28;20137;-68
2022/04/18 12:23:20;;;;;;;6.28;1.30;;;15.70;47.30;;;;;;5067409;28;20044;-67
2022/04/18 12:25:48;;;;;;;3.45;1.08;;;15.80;47.30;;;;;;5065623;28;20075;-66
2022/04/18 12:28:14;;;;;;;2.13;1.20;;;15.60;44.50;;;;;;5067258;28;20044;-67
2022/04/18 12:30:40;;;;;;;2.38;1.20;;;15.40;45.60;;;;;;5070218;28;20071;-67
2022/04/18 12:33:10;;;;;;;;;;;15.30;46.20;;;;;;5066911;28;20735;-67
2022/04/18 12:35:42;;;;;;;2.63;1.25;;;15.20;42.00;;;;;;5064608;28;19924;-67
2022/04/18 12:38:10;;;;;;;2.08;1.48;;;15.20;44.40;;;;;;5069366;28;20056;-67
2022/04/18 12:40:40;;;;;;;2.25;1.20;;;15.40;44.30;;;;;;5068481;28;20756;-67
2022/04/18 12:43:12;;;;;;;2.28;1.02;;;15.40;43.60;;;;;;5063261;28;20075;-67
2022/04/18 12:45:43;;;;;;;1.92;1.25;;;15.40;45.30;;;;;;5066858;28;20047;-67
2022/04/18 12:48:08;;;;;;;1.40;0.82;;;15.50;45.10;;;;;;5067168;28;20106;-67
2022/04/18 12:50:34;;;;;;;;;;;15.50;44.40;;;;;;5068733;28;20491;-67
2022/04/18 12:53:00;;;;;;;3.50;1.45;;;15.50;43.00;;;;;;5067269;28;19916;-67
2022/04/18 12:55:26;;;;;;;;;;;15.50;43.50;;;;;;5067968;28;20098;-67
2022/04/18 12:57:52;;;;;;;2.75;1.05;;;15.40;44.20;;;;;;5067127;28;20390;-67
2022/04/18 13:00:18;;;;;;;;;;;15.60;44.30;;;;;;5066752;27;20039;-68
2022/04/18 13:03:04;;;;;;;3.63;1.20;;;15.50;42.90;;;;;;5067015;28;19920;-68
2022/04/18 13:05:40;;;;;;;4.90;1.90;;;15.30;45.10;;;;;;5067838;28;20037;-67
2022/04/18 13:08:07;;;;;;;3.05;1.38;;;15.20;44.20;;;;;;5075086;28;20169;-67
2022/04/18 13:10:34;;;;;;;2.85;1.20;;;15.20;43.00;;;;;;5067502;28;20040;-67
2022/04/18 13:13:07;;;;;;;3.10;1.17;;;15.30;44.00;;;;;;5066498;28;20041;-67
2022/04/18 13:15:34;;;;;;;2.55;1.00;;;15.50;43.60;;;;;;5065894;28;20704;-67
2022/04/18 13:18:04;;;;;;;2.03;1.00;;;15.60;42.70;;;;;;5066492;28;20103;-68
2022/04/18 13:20:31;;;;;;;4.93;1.38;;;15.60;43.00;;;;;;5067025;28;20924;-69
2022/04/18 13:22:57;;;;;;;1.77;0.95;;;15.60;46.10;;;;;;5066013;28;20687;-68
2022/04/18 13:25:22;;;;;;;;;;;15.70;40.50;;;;;;5065996;28;20098;-67
2022/04/18 13:27:49;;;;;;;1.60;1.33;;;15.60;43.20;;;;;;5066814;28;20006;-67
2022/04/18 13:30:15;;;;;;;1.73;1.02;;;15.70;44.90;;;;;;5065425;28;20037;-67
2022/04/18 13:32:40;;;;;;;;;;;15.70;42.10;;;;;;5067467;28;20045;-67